Time;durP1;ratioP1;P1;durP2;ratioP2;P2;SDS_P1;SDS_P2;PMS_P1;PMS_P2;Temp;Humidity;BMP_temperature;BMP_pressure;BME280_temperature;BME280_humidity;BME280_pressure;Samples;Min_cycle;Max_cycle;Signal;HPM_P1;HPM_P2
2023/10/01 00:02:26;;;;;;;;;;;;;;;22.32;50.58;96652.63;10439837;28;2097;-53
2023/10/01 00:07:29;;;;;;;;;;;;;;;22.31;50.58;96651.06;10437420;28;1818;-56
2023/10/01 00:12:29;;;;;;;;;;;;;;;22.31;50.30;96651.06;10435780;28;2678;-54
2023/10/01 00:17:31;;;;;;;;;;;;;;;22.31;50.12;96651.06;10432417;28;1835;-56
2023/10/01 00:22:33;;;;;;;;;;;;;;;22.31;50.33;96655.53;10429772;28;2074;-55
2023/10/01 00:27:33;;;;;;;;;;;;;;;22.30;50.08;96649.47;10436778;28;2243;-55
2023/10/01 00:32:34;;;;;;;;;;;;;;;22.29;49.98;96653.16;10435966;28;1965;-54
2023/10/01 00:37:34;;;;;;;;;;;;;;;22.30;50.20;96651.28;10438331;28;1996;-52
2023/10/01 00:42:35;;;;;;;;;;;;;;;22.28;50.12;96648.94;10436905;28;4469;-55
2023/10/01 00:47:35;;;;;;;;;;;;;;;22.28;49.82;96635.72;10436247;28;1893;-56
2023/10/01 00:52:37;;;;;;;;;;;;;;;22.28;49.99;96640.19;10436839;28;2100;-53
2023/10/01 00:57:38;;;;;;;;;;;;;;;22.28;49.63;96640.19;10435991;28;2564;-55
2023/10/01 01:02:38;;;;;;;;;;;;;;;22.27;49.59;96639.44;10431108;28;1926;-55
2023/10/01 01:07:40;;;;;;;;;;;;;;;22.26;49.63;96635.19;10432530;28;1979;-56
2023/10/01 01:12:41;;;;;;;;;;;;;;;22.26;49.77;96632.56;10439694;28;1968;-53
2023/10/01 01:17:41;;;;;;;;;;;;;;;22.26;49.58;96626.47;10440500;28;1943;-55
2023/10/01 01:22:51;;;;;;;;;;;;;;;22.26;49.50;96631.75;10437940;28;1917;-54
2023/10/01 01:27:52;;;;;;;;;;;;;;;22.25;49.58;96625.69;10435888;28;2023;-55
2023/10/01 01:32:53;;;;;;;;;;;;;;;22.24;49.30;96629.38;10436585;28;2239;-55
2023/10/01 01:37:56;;;;;;;;;;;;;;;22.24;49.46;96626.75;10437194;28;1935;-54
2023/10/01 01:42:56;;;;;;;;;;;;;;;22.24;49.43;96626.75;10435386;28;4603;-56
2023/10/01 01:47:56;;;;;;;;;;;;;;;22.24;49.53;96618.00;10441794;28;1908;-55
2023/10/01 01:52:57;;;;;;;;;;;;;;;22.23;49.54;96622.53;10434767;28;2022;-52
2023/10/01 02:03:14;;;;;;;;;;;;;;;22.23;49.54;96608.53;10432370;28;1999;-53
2023/10/01 02:08:23;;;;;;;;;;;;;;;22.23;49.13;96611.97;10438926;28;2003;-56
2023/10/01 02:13:25;;;;;;;;;;;;;;;22.23;49.33;96606.69;10436278;28;1951;-54
2023/10/01 02:18:26;;;;;;;;;;;;;;;22.23;49.44;96608.53;10439718;28;1919;-54
2023/10/01 02:23:33;;;;;;;;;;;;;;;22.22;49.13;96610.38;10419519;28;1905;-57
2023/10/01 02:28:36;;;;;;;;;;;;;;;22.22;49.03;96605.09;10438384;28;2488;-56
2023/10/01 02:38:55;;;;;;;;;;;;;;;22.22;49.35;96605.09;10447425;28;1955;-56
2023/10/01 02:43:56;;;;;;;;;;;;;;;22.22;48.95;96606.91;10447137;28;4559;-57
2023/10/01 02:48:59;;;;;;;;;;;;;;;22.21;48.93;96598.22;10446664;28;1955;-55
2023/10/01 02:54:05;;;;;;;;;;;;;;;22.20;48.87;96594.00;10449690;28;1920;-57
2023/10/01 02:59:10;;;;;;;;;;;;;;;22.20;49.15;96601.91;10445712;28;1911;-54
2023/10/01 03:04:12;;;;;;;;;;;;;;;22.21;49.09;96600.88;10449211;28;1933;-55
2023/10/01 03:09:33;;;;;;;;;;;;;;;22.20;49.00;96601.91;10448553;28;1999;-55
2023/10/01 03:14:34;;;;;;;;;;;;;;;22.21;48.79;96597.44;10445813;28;2663;-53
2023/10/01 03:19:36;;;;;;;;;;;;;;;22.20;48.96;96601.13;10435759;28;1974;-54
2023/10/01 03:24:41;;;;;;;;;;;;;;;22.19;48.96;96591.63;10441866;28;1990;-54
2023/10/01 03:29:42;;;;;;;;;;;;;;;22.20;48.89;96601.91;10442886;28;1940;-50
2023/10/01 03:34:43;;;;;;;;;;;;;;;22.20;48.90;96598.47;10441561;28;2011;-54
2023/10/01 03:39:44;;;;;;;;;;;;;;;22.19;48.62;96594.25;10448107;28;1885;-54
2023/10/01 03:45:25;;;;;;;;;;;;;;;22.18;48.89;96596.09;10443443;28;4575;-55
2023/10/01 03:50:25;;;;;;;;;;;;;;;22.17;48.58;96597.16;10438454;28;2065;-56
2023/10/01 04:00:34;;;;;;;;;;;;;;;22.18;48.54;96598.75;10437721;28;2643;-56
2023/10/01 04:05:37;;;;;;;;;;;;;;;22.17;48.76;96597.16;10445222;28;2180;-55
2023/10/01 04:10:38;;;;;;;;;;;;;;;22.16;48.55;96595.56;10439897;28;2026;-55
2023/10/01 04:15:43;;;;;;;;;;;;;;;22.15;48.51;96596.66;10444378;28;1863;-55
2023/10/01 04:20:47;;;;;;;;;;;;;;;22.16;48.38;96589.50;10438960;28;1896;-56
2023/10/01 04:25:51;;;;;;;;;;;;;;;22.15;48.48;96594.00;10443706;28;2075;-54
2023/10/01 04:30:51;;;;;;;;;;;;;;;22.15;48.63;96601.94;10440925;28;1973;-54
2023/10/01 04:35:51;;;;;;;;;;;;;;;22.15;48.61;96598.47;10440648;28;2183;-55
2023/10/01 04:40:52;;;;;;;;;;;;;;;22.14;48.50;96592.41;10442879;28;4566;-54
2023/10/01 04:45:52;;;;;;;;;;;;;;;22.13;48.66;96596.13;10436848;28;2747;-54
2023/10/01 04:50:53;;;;;;;;;;;;;;;22.15;48.16;96594.00;10437619;28;2019;-54
2023/10/01 04:56:05;;;;;;;;;;;;;;;22.14;48.22;96596.88;10435403;28;1874;-55
2023/10/01 05:01:07;;;;;;;;;;;;;;;22.13;48.27;96595.31;10440930;28;2054;-55
2023/10/01 05:06:08;;;;;;;;;;;;;;;22.12;48.16;96599.78;10432024;28;1943;-54
2023/10/01 05:11:12;;;;;;;;;;;;;;;22.12;48.06;96606.91;10438143;28;1981;-55
2023/10/01 05:16:12;;;;;;;;;;;;;;;22.12;48.43;96604.28;10436975;28;2306;-55
2023/10/01 05:21:12;;;;;;;;;;;;;;;22.12;48.42;96609.56;10438410;28;1888;-55
2023/10/01 05:26:13;;;;;;;;;;;;;;;22.11;48.34;96608.00;10438688;28;1992;-55
2023/10/01 05:31:15;;;;;;;;;;;;;;;22.11;48.15;96613.28;10442131;28;2699;-52
2023/10/01 05:36:16;;;;;;;;;;;;;;;22.10;48.46;96612.47;10433792;28;1901;-55
2023/10/01 05:41:29;;;;;;;;;;;;;;;22.10;48.26;96617.75;10438677;28;4594;-56
2023/10/01 05:46:30;;;;;;;;;;;;;;;22.10;48.31;96612.47;10438922;28;1991;-52
2023/10/01 05:51:36;;;;;;;;;;;;;;;22.09;48.34;96610.88;10434218;28;1971;-55
2023/10/01 05:56:36;;;;;;;;;;;;;;;22.08;48.19;96601.38;10437534;28;1954;-54
2023/10/01 06:01:39;;;;;;;;;;;;;;;22.09;48.37;96599.53;10419446;28;2002;-55
2023/10/01 06:06:42;;;;;;;;;;;;;;;22.09;48.34;96605.59;10438600;28;1906;-55
2023/10/01 06:11:48;;;;;;;;;;;;;;;22.09;48.11;96605.59;10439570;28;1961;-56
2023/10/01 06:16:49;;;;;;;;;;;;;;;22.09;48.30;96600.31;10434904;28;2837;-56
2023/10/01 06:21:49;;;;;;;;;;;;;;;22.10;48.34;96601.09;10433919;28;1916;-56
2023/10/01 06:26:50;;;;;;;;;;;;;;;22.10;48.03;96607.19;10438628;28;1936;-53
2023/10/01 06:32:00;;;;;;;;;;;;;;;22.10;48.43;96614.31;10436517;28;2044;-56
2023/10/01 06:37:01;;;;;;;;;;;;;;;22.10;48.12;96625.66;10437854;28;1872;-56
2023/10/01 06:42:20;;;;;;;;;;;;;;;22.10;48.31;96624.88;10432204;28;1989;-55
2023/10/01 06:47:23;;;;;;;;;;;;;;;22.10;48.33;96630.16;10436656;28;1967;-55
2023/10/01 06:52:24;;;;;;;;;;;;;;;22.09;48.37;96637.28;10434415;28;1910;-55
2023/10/01 06:57:27;;;;;;;;;;;;;;;22.09;48.41;96642.56;10438984;28;2032;-54
2023/10/01 07:02:28;;;;;;;;;;;;;;;22.09;48.37;96642.56;10436441;28;2900;-51
2023/10/01 07:07:30;;;;;;;;;;;;;;;22.09;48.39;96647.06;10435356;28;1947;-54
2023/10/01 07:12:31;;;;;;;;;;;;;;;22.11;48.30;96650.25;10435530;28;1975;-56
2023/10/01 07:17:33;;;;;;;;;;;;;;;22.10;48.25;96646.00;10437551;28;1937;-54
2023/10/01 07:22:38;;;;;;;;;;;;;;;22.10;48.50;96653.91;10440761;28;2118;-56
2023/10/01 07:27:42;;;;;;;;;;;;;;;22.12;48.67;96649.16;10444707;28;1909;-56
2023/10/01 07:32:42;;;;;;;;;;;;;;;22.15;49.36;96660.03;10438230;28;1918;-57
2023/10/01 07:37:43;;;;;;;;;;;;;;;22.17;49.06;96662.41;10440105;28;2022;-56
2023/10/01 07:42:54;;;;;;;;;;;;;;;22.15;48.87;96657.38;10435371;28;4634;-55
2023/10/01 07:47:55;;;;;;;;;;;;;;;22.13;48.72;96654.22;10438675;28;2792;-51
2023/10/01 07:53:03;;;;;;;;;;;;;;;22.15;48.93;96667.94;10437982;28;2003;-53
2023/10/01 08:08:47;;;;;;;;;;;;;;;22.12;49.01;96665.00;10425054;28;1995;-55
2023/10/01 08:13:47;;;;;;;;;;;;;;;22.14;49.72;96674.25;10449433;28;1936;-53
2023/10/01 08:18:47;;;;;;;;;;;;;;;22.17;49.27;96675.59;10444495;28;1993;-53
2023/10/01 08:23:54;;;;;;;;;;;;;;;22.17;49.39;96665.84;10445101;28;1912;-56
2023/10/01 08:28:57;;;;;;;;;;;;;;;22.18;49.72;96667.41;10439469;28;1975;-55
2023/10/01 08:34:22;;;;;;;;;;;;;;;22.20;49.45;96665.28;10443292;28;2951;-55
2023/10/01 08:39:33;;;;;;;;;;;;;;;22.20;49.58;96667.94;10438869;28;2038;-53
2023/10/01 08:44:44;;;;;;;;;;;;;;;22.21;49.77;96666.91;10437229;28;4543;-55
2023/10/01 08:49:44;;;;;;;;;;;;;;;22.21;49.90;96672.19;10440306;28;2035;-56
2023/10/01 08:54:45;;;;;;;;;;;;;;;22.22;49.99;96676.38;10437108;28;1998;-57
2023/10/01 08:59:45;;;;;;;;;;;;;;;22.23;49.67;96682.47;10437405;28;1999;-55
2023/10/01 09:04:46;;;;;;;;;;;;;;;22.23;49.87;96680.63;10439301;28;1826;-57
2023/10/01 09:10:08;;;;;;;;;;;;;;;22.24;49.59;96682.19;10440272;28;2036;-53
2023/10/01 09:15:11;;;;;;;;;;;;;;;22.24;49.95;96679.56;10436617;28;1872;-56
2023/10/01 09:20:17;;;;;;;;;;;;;;;22.26;49.83;96674.81;10433096;28;2828;-55
2023/10/01 09:25:20;;;;;;;;;;;;;;;22.25;49.66;96672.44;10436374;28;1878;-55
2023/10/01 09:30:26;;;;;;;;;;;;;;;22.26;50.06;96674.81;10434696;28;1976;-56
2023/10/01 09:35:40;;;;;;;;;;;;;;;22.26;49.95;96671.38;10439975;28;1969;-57
2023/10/01 09:40:45;;;;;;;;;;;;;;;22.27;49.62;96681.69;10435768;28;4785;-57
2023/10/01 09:45:46;;;;;;;;;;;;;;;22.28;49.92;96679.81;10437143;28;2457;-56
2023/10/01 09:50:47;;;;;;;;;;;;;;;22.28;49.96;96677.19;10440707;28;1906;-55
2023/10/01 09:55:47;;;;;;;;;;;;;;;22.29;49.83;96684.06;10419681;28;1889;-56
2023/10/01 10:00:48;;;;;;;;;;;;;;;22.29;50.04;96684.88;10443475;28;1878;-55
2023/10/01 10:05:48;;;;;;;;;;;;;;;22.30;49.92;96675.06;10438879;28;2800;-56
2023/10/01 10:10:52;;;;;;;;;;;;;;;22.31;50.01;96674.84;10444653;28;1996;-56
2023/10/01 10:15:56;;;;;;;;;;;;;;;22.33;49.75;96666.63;10433794;28;1857;-56
2023/10/01 10:20:57;;;;;;;;;;;;;;;22.33;50.07;96680.66;10431694;28;1886;-55
2023/10/01 10:26:13;;;;;;;;;;;;;;;22.32;49.69;96670.31;10437389;28;1971;-56
2023/10/01 10:31:29;;;;;;;;;;;;;;;22.34;49.93;96676.16;10439151;28;2026;-54
2023/10/01 10:36:36;;;;;;;;;;;;;;;22.33;49.87;96670.06;10438138;28;2042;-54
2023/10/01 10:41:36;;;;;;;;;;;;;;;22.34;49.94;96666.38;10429073;28;2083;-54
2023/10/01 10:47:06;;;;;;;;;;;;;;;22.34;49.93;96666.38;10438333;28;2024;-55
2023/10/01 10:52:08;;;;;;;;;;;;;;;22.36;49.69;96666.91;10412966;28;2809;-54
2023/10/01 10:57:11;;;;;;;;;;;;;;;22.36;49.79;96661.63;10442174;28;1850;-54
2023/10/01 11:02:16;;;;;;;;;;;;;;;22.39;50.04;96658.47;10444466;28;1862;-55
2023/10/01 11:07:19;;;;;;;;;;;;;;;22.36;49.81;96645.75;10441450;28;2000;-54
2023/10/01 11:12:21;;;;;;;;;;;;;;;22.38;49.76;96641.00;10447640;28;1902;-55
2023/10/01 11:17:22;;;;;;;;;;;;;;;22.39;49.77;96642.59;10446464;28;1893;-52
2023/10/01 11:22:22;;;;;;;;;;;;;;;22.40;49.67;96635.50;10442861;28;2057;-63
2023/10/01 11:27:25;;;;;;;;;;;;;;;22.41;50.10;96629.94;10443024;28;1942;-56
2023/10/01 11:38:11;;;;;;;;;;;;;;;22.44;50.14;96621.47;10444657;28;1905;-56
2023/10/01 11:43:23;;;;;;;;;;;;;;;22.44;49.75;96610.91;10442182;28;4620;-56
2023/10/01 11:48:32;;;;;;;;;;;;;;;22.46;49.99;96602.72;10439859;28;1913;-54
2023/10/01 11:53:47;;;;;;;;;;;;;;;22.47;49.83;96605.09;10435164;28;1993;-56
2023/10/01 11:58:48;;;;;;;;;;;;;;;22.47;49.92;96597.16;10441480;28;1916;-54
2023/10/01 12:03:58;;;;;;;;;;;;;;;22.47;50.06;96585.81;10443020;28;1954;-55
2023/10/01 12:08:58;;;;;;;;;;;;;;;22.48;50.01;96585.53;10440188;28;2245;-55
2023/10/01 12:14:05;;;;;;;;;;;;;;;22.50;49.85;96583.41;10445068;28;1889;-54
2023/10/01 12:19:22;;;;;;;;;;;;;;;22.50;49.95;96578.13;10443978;28;3063;-56
2023/10/01 12:24:28;;;;;;;;;;;;;;;22.50;49.79;96572.84;10440212;28;1901;-52
2023/10/01 12:29:42;;;;;;;;;;;;;;;22.52;49.79;96576.00;10440383;28;1918;-54
2023/10/01 12:34:43;;;;;;;;;;;;;;;22.53;49.75;96571.53;10440301;28;1899;-56
2023/10/01 12:39:44;;;;;;;;;;;;;;;22.52;49.97;96565.44;10438778;28;1843;-54
2023/10/01 12:44:44;;;;;;;;;;;;;;;22.53;49.71;96556.47;10438675;28;4559;-56
2023/10/01 12:49:58;;;;;;;;;;;;;;;22.54;49.76;96549.34;10440176;28;1926;-56
2023/10/01 12:55:00;;;;;;;;;;;;;;;22.54;49.73;96544.06;10436640;28;1886;-56
2023/10/01 13:00:23;;;;;;;;;;;;;;;22.58;49.88;96537.22;10442249;28;1954;-53
2023/10/01 13:05:27;;;;;;;;;;;;;;;22.58;49.87;96526.66;10442150;28;2913;-54
2023/10/01 13:10:34;;;;;;;;;;;;;;;22.60;49.94;96529.81;10438164;28;2015;-55
2023/10/01 13:15:36;;;;;;;;;;;;;;;22.59;49.89;96522.94;10439658;28;2012;-56
2023/10/01 13:21:27;;;;;;;;;;;;;;;22.61;50.14;96520.81;10433356;28;1962;-54
2023/10/01 13:26:15;;;;;;;;;;;;;;;22.60;49.86;96520.03;10435420;28;1970;-54
2023/10/01 13:36:47;;;;;;;;;;;;;;;22.63;49.86;96516.84;10435061;28;1949;-54
2023/10/01 14:13:41;;;;;;;;;;;;;;;22.67;49.84;96488.81;10436469;28;1941;-55
2023/10/01 14:18:53;;;;;;;;;;;;;;;22.67;49.64;96484.59;10434491;28;1885;-55
2023/10/01 14:29:16;;;;;;;;;;;;;;;22.66;49.72;96475.88;10443447;28;1906;-56
2023/10/01 14:34:20;;;;;;;;;;;;;;;22.66;49.75;96475.88;10444549;28;2816;-54
2023/10/01 14:39:29;;;;;;;;;;;;;;;22.66;49.80;96475.88;10445270;28;1814;-52
2023/10/01 14:44:30;;;;;;;;;;;;;;;22.65;49.66;96472.44;10447809;28;4610;-54
2023/10/01 14:49:30;;;;;;;;;;;;;;;22.65;49.68;96472.44;10449554;28;1910;-54
2023/10/01 14:54:36;;;;;;;;;;;;;;;22.64;49.67;96465.59;10446914;28;1905;-54
2023/10/01 14:59:36;;;;;;;;;;;;;;;22.65;49.66;96458.44;10448989;28;1870;-50
2023/10/01 15:04:37;;;;;;;;;;;;;;;22.63;49.61;96463.19;10442167;28;1949;-54
2023/10/01 15:09:38;;;;;;;;;;;;;;;22.63;49.70;96465.84;10444465;28;1902;-55
2023/10/01 15:14:38;;;;;;;;;;;;;;;22.62;49.42;96466.91;10442345;28;1949;-55
2023/10/01 15:19:46;;;;;;;;;;;;;;;22.61;49.58;96466.13;10443950;28;3105;-53
2023/10/01 15:24:48;;;;;;;;;;;;;;;22.61;49.63;96465.31;10459809;28;1857;-56
2023/10/01 15:29:52;;;;;;;;;;;;;;;22.62;49.59;96464.28;10444088;28;1977;-56
2023/10/01 15:34:56;;;;;;;;;;;;;;;22.61;49.69;96462.66;10439968;28;1884;-55
2023/10/01 15:40:00;;;;;;;;;;;;;;;22.60;49.74;96464.53;10441230;28;1920;-54
2023/10/01 15:45:15;;;;;;;;;;;;;;;22.59;49.40;96465.59;10442820;28;1913;-55
2023/10/01 15:50:16;;;;;;;;;;;;;;;22.59;49.68;96465.59;10444807;28;1914;-54
2023/10/01 15:55:31;;;;;;;;;;;;;;;22.56;49.58;96460.84;10440081;28;1995;-55
2023/10/01 16:00:34;;;;;;;;;;;;;;;22.56;49.28;96474.03;10438109;28;2124;-55
2023/10/01 16:05:40;;;;;;;;;;;;;;;22.57;49.57;96474.81;10445212;28;2907;-56
2023/10/01 16:10:43;;;;;;;;;;;;;;;22.55;49.29;96472.44;10438159;28;1901;-55
2023/10/01 16:15:46;;;;;;;;;;;;;;;22.55;49.32;96471.66;10440610;28;1826;-56
2023/10/01 16:20:49;;;;;;;;;;;;;;;22.54;49.45;96483.28;10439764;28;1878;-54
2023/10/01 16:25:50;;;;;;;;;;;;;;;22.53;49.44;96486.97;10443111;28;1803;-54
2023/10/01 16:30:52;;;;;;;;;;;;;;;22.53;49.13;96487.78;10437195;28;1937;-55
2023/10/01 16:35:52;;;;;;;;;;;;;;;22.52;49.20;96488.81;10436557;28;1878;-55
2023/10/01 16:40:52;;;;;;;;;;;;;;;22.52;49.18;96488.81;10439473;28;1885;-56
2023/10/01 16:45:53;;;;;;;;;;;;;;;22.53;49.16;96486.97;10443919;28;1952;-55
2023/10/01 16:50:59;;;;;;;;;;;;;;;22.51;49.24;96492.53;10441635;28;2937;-55
2023/10/01 16:56:00;;;;;;;;;;;;;;;22.52;49.20;96503.91;10432966;28;1881;-56
2023/10/01 17:01:13;;;;;;;;;;;;;;;22.51;49.35;96492.53;10440666;28;1878;-54
2023/10/01 17:06:16;;;;;;;;;;;;;;;22.50;49.11;96496.22;10438775;28;1941;-56
2023/10/01 17:11:17;;;;;;;;;;;;;;;22.50;49.23;96498.88;10439130;28;1952;-54
2023/10/01 17:16:24;;;;;;;;;;;;;;;22.50;49.26;96487.53;10438072;28;1838;-55
2023/10/01 17:21:36;;;;;;;;;;;;;;;22.50;49.34;96490.94;10435223;28;1876;-56
2023/10/01 17:26:48;;;;;;;;;;;;;;;22.50;49.21;96488.28;10437293;28;1882;-55
2023/10/01 17:31:59;;;;;;;;;;;;;;;22.51;49.56;96491.75;10433518;28;1999;-56
2023/10/01 17:37:03;;;;;;;;;;;;;;;22.50;49.21;96500.75;10433608;28;2955;-55
2023/10/01 17:42:06;;;;;;;;;;;;;;;22.49;49.20;96502.59;10436478;28;4508;-56
2023/10/01 17:47:06;;;;;;;;;;;;;;;22.50;49.33;96504.16;10439777;28;2034;-52
2023/10/01 17:52:19;;;;;;;;;;;;;;;22.49;49.47;96507.88;10426382;28;2046;-55
2023/10/01 17:57:26;;;;;;;;;;;;;;;22.50;49.36;96508.66;10436291;28;1972;-54
2023/10/01 18:02:28;;;;;;;;;;;;;;;22.50;49.29;96511.31;10436710;28;1886;-55
2023/10/01 18:07:34;;;;;;;;;;;;;;;22.50;49.27;96521.88;10439484;28;1957;-55
2023/10/01 18:12:34;;;;;;;;;;;;;;;22.49;49.28;96513.16;10434769;28;1985;-54
2023/10/01 18:17:34;;;;;;;;;;;;;;;22.49;49.26;96510.50;10432025;28;1961;-55
2023/10/01 18:22:34;;;;;;;;;;;;;;;22.49;49.50;96518.44;10440722;28;1921;-54
2023/10/01 18:27:35;;;;;;;;;;;;;;;22.48;49.57;96508.91;10433061;28;1877;-55
2023/10/01 18:32:38;;;;;;;;;;;;;;;22.48;49.26;96506.28;10435706;28;1971;-54
2023/10/01 18:37:38;;;;;;;;;;;;;;;22.49;49.35;96509.72;10435176;28;2516;-55
2023/10/01 18:42:39;;;;;;;;;;;;;;;22.48;49.38;96508.91;10434687;28;4536;-54
2023/10/01 18:47:40;;;;;;;;;;;;;;;22.48;49.30;96508.91;10436580;28;1870;-54
2023/10/01 18:52:40;;;;;;;;;;;;;;;22.48;49.39;96524.75;10433951;28;1973;-54
2023/10/01 18:57:40;;;;;;;;;;;;;;;22.48;49.39;96518.72;10439193;28;1945;-54
2023/10/01 19:02:40;;;;;;;;;;;;;;;22.47;49.30;96528.47;10441549;28;1791;-53
2023/10/01 19:07:42;;;;;;;;;;;;;;;22.49;49.41;96531.66;10431776;28;1934;-56
2023/10/01 19:12:42;;;;;;;;;;;;;;;22.47;49.50;96532.97;10432364;28;1902;-55
2023/10/01 19:17:48;;;;;;;;;;;;;;;22.47;49.66;96533.75;10442018;28;1882;-56
2023/10/01 19:22:48;;;;;;;;;;;;;;;22.48;49.64;96531.91;10442206;28;2384;-53
2023/10/01 19:27:49;;;;;;;;;;;;;;;22.47;49.51;96531.13;10437916;28;1897;-55
2023/10/01 19:32:49;;;;;;;;;;;;;;;22.47;49.34;96531.13;10437490;28;1965;-55
2023/10/01 19:37:50;;;;;;;;;;;;;;;22.46;49.49;96526.88;10444810;28;1961;-54
2023/10/01 19:42:52;;;;;;;;;;;;;;;22.47;49.63;96519.75;10437756;28;4535;-55
2023/10/01 19:47:55;;;;;;;;;;;;;;;22.46;49.19;96520.81;10440986;28;1901;-57
2023/10/01 19:52:55;;;;;;;;;;;;;;;22.47;49.30;96517.91;10436938;28;1949;-57
2023/10/01 19:57:55;;;;;;;;;;;;;;;22.46;49.36;96518.94;10440468;28;1894;-54
2023/10/01 20:03:10;;;;;;;;;;;;;;;22.46;49.34;96521.59;10441057;28;1931;-54
2023/10/01 20:08:10;;;;;;;;;;;;;;;22.46;49.54;96524.25;10438908;28;2498;-56
2023/10/01 20:13:11;;;;;;;;;;;;;;;22.46;49.48;96520.81;10442915;28;1891;-53
2023/10/01 20:18:13;;;;;;;;;;;;;;;22.47;49.69;96528.47;10442913;28;1842;-55
2023/10/01 20:23:13;;;;;;;;;;;;;;;22.47;49.59;96528.47;10439871;28;1880;-54
2023/10/01 20:28:13;;;;;;;;;;;;;;;22.48;49.84;96524.75;10438156;28;1839;-56
2023/10/01 20:33:15;;;;;;;;;;;;;;;22.47;49.61;96520.56;10433161;28;2021;-53
2023/10/01 20:38:26;;;;;;;;;;;;;;;22.49;49.76;96515.00;10440680;28;1943;-55
2023/10/01 20:43:32;;;;;;;;;;;;;;;22.49;50.07;96520.28;10439286;28;4579;-56
2023/10/01 20:48:38;;;;;;;;;;;;;;;22.50;50.02;96506.78;10422200;28;1868;-56
2023/10/01 20:53:41;;;;;;;;;;;;;;;22.50;50.21;96509.44;10437518;28;2428;-56
2023/10/01 20:58:42;;;;;;;;;;;;;;;22.50;50.02;96500.75;10442386;28;1972;-56
2023/10/01 21:03:47;;;;;;;;;;;;;;;22.50;50.16;96506.78;10441632;28;1911;-56
2023/10/01 21:08:47;;;;;;;;;;;;;;;22.51;50.35;96508.38;10439309;28;1878;-55
2023/10/01 21:13:56;;;;;;;;;;;;;;;22.49;50.15;96499.94;10443885;28;1898;-55
2023/10/01 21:18:58;;;;;;;;;;;;;;;22.49;50.36;96507.88;10440776;28;1948;-57
2023/10/01 21:23:58;;;;;;;;;;;;;;;22.49;50.29;96510.50;10441927;28;1840;-53
2023/10/01 21:28:58;;;;;;;;;;;;;;;22.51;50.28;96520.81;10439858;28;1840;-56
2023/10/01 21:34:14;;;;;;;;;;;;;;;22.51;50.38;96507.59;10443496;28;1898;-54
2023/10/01 21:39:15;;;;;;;;;;;;;;;22.49;50.47;96499.94;10441923;28;1838;-54
2023/10/01 21:44:26;;;;;;;;;;;;;;;22.49;50.50;96499.94;10442437;28;4575;-56
2023/10/01 21:49:28;;;;;;;;;;;;;;;22.49;50.48;96497.28;10438414;28;1973;-54
2023/10/01 21:54:29;;;;;;;;;;;;;;;22.49;50.62;96501.78;10438519;28;2658;-54
2023/10/01 21:59:34;;;;;;;;;;;;;;;22.49;50.37;96491.22;10440333;28;1878;-54
2023/10/01 22:04:39;;;;;;;;;;;;;;;22.48;50.36;96489.66;10437475;28;2016;-52
2023/10/01 22:09:40;;;;;;;;;;;;;;;22.48;50.30;96482.50;10440595;28;1914;-52
2023/10/01 22:14:42;;;;;;;;;;;;;;;22.47;50.31;96477.47;10435451;28;2086;-53
2023/10/01 22:19:43;;;;;;;;;;;;;;;22.48;50.27;96477.22;10434359;28;1826;-52
2023/10/01 22:24:44;;;;;;;;;;;;;;;22.47;50.59;96470.34;10437779;28;1874;-57
2023/10/01 22:29:45;;;;;;;;;;;;;;;22.47;50.52;96465.06;10433230;28;1922;-56
2023/10/01 22:34:56;;;;;;;;;;;;;;;22.48;50.54;96465.88;10436177;28;1935;-56
2023/10/01 22:39:57;;;;;;;;;;;;;;;22.46;50.24;96463.47;10439944;28;2644;-56
2023/10/01 22:44:58;;;;;;;;;;;;;;;22.47;50.64;96464.28;10435560;28;4956;-54
2023/10/01 22:50:12;;;;;;;;;;;;;;;22.46;50.44;96463.47;10436158;28;1910;-55
2023/10/01 22:55:12;;;;;;;;;;;;;;;22.46;50.36;96468.00;10441872;28;1870;-55
2023/10/01 23:00:22;;;;;;;;;;;;;;;22.45;50.27;96459.25;10444900;28;2000;-54
2023/10/01 23:05:22;;;;;;;;;;;;;;;22.45;50.24;96461.09;10442062;28;1907;-56
2023/10/01 23:10:25;;;;;;;;;;;;;;;22.45;50.22;96458.47;10440629;28;1914;-56
2023/10/01 23:15:39;;;;;;;;;;;;;;;22.44;50.54;96460.31;10436467;28;1826;-55
2023/10/01 23:20:49;;;;;;;;;;;;;;;22.43;50.52;96461.38;10442081;28;2154;-57
2023/10/01 23:26:11;;;;;;;;;;;;;;;22.44;50.54;96455.03;10446650;28;2492;-55
2023/10/01 23:31:15;;;;;;;;;;;;;;;22.44;50.24;96452.38;10444650;28;2112;-54
2023/10/01 23:36:18;;;;;;;;;;;;;;;22.43;50.51;96448.19;10443156;28;1901;-56
2023/10/01 23:46:39;;;;;;;;;;;;;;;22.44;50.51;96454.25;10445366;28;1866;-56
2023/10/01 23:51:41;;;;;;;;;;;;;;;22.43;50.17;96450.81;10437984;28;1981;-56
2023/10/01 23:56:41;;;;;;;;;;;;;;;22.42;50.40;96443.16;10441552;28;1889;-56
